Time;durP1;ratioP1;P1;durP2;ratioP2;P2;SDS_P1;SDS_P2;PMS_P1;PMS_P2;Temp;Humidity;BMP_temperature;BMP_pressure;BME280_temperature;BME280_humidity;BME280_pressure;Samples;Min_cycle;Max_cycle;Signal;HPM_P1;HPM_P2
2022/07/03 00:02:27;;;;;;;9.13;7.87;;;;;;;13.45;84.16;99550.84;2292995;78;20983;-80
2022/07/03 00:05:27;;;;;;;13.35;8.08;;;;;;;13.43;84.16;99549.95;2255257;77;21015;-80
2022/07/03 00:08:28;;;;;;;8.33;7.53;;;;;;;13.43;84.14;99547.32;2250462;78;21332;-81
2022/07/03 00:11:28;;;;;;;9.48;8.28;;;;;;;13.38;84.14;99537.66;2250601;78;20991;-80
2022/07/03 00:17:31;;;;;;;9.10;7.70;;;;;;;13.32;84.29;99528.84;2241594;79;22188;-81
2022/07/03 00:20:32;;;;;;;8.15;7.45;;;;;;;13.24;84.05;99532.69;2192261;80;21059;-81
2022/07/03 00:23:32;;;;;;;10.93;8.20;;;;;;;13.14;83.90;99533.40;2192360;81;20948;-81
2022/07/03 00:26:34;;;;;;;9.13;8.15;;;;;;;13.09;84.45;99521.98;2192589;81;20948;-81
2022/07/03 00:29:33;;;;;;;8.53;7.70;;;;;;;13.06;84.23;99525.44;2192519;81;20972;-81
2022/07/03 00:32:34;;;;;;;9.43;7.65;;;;;;;13.02;84.33;99526.27;2192341;81;20980;-81
2022/07/03 00:35:34;;;;;;;17.98;7.70;;;;;;;13.01;84.53;99527.55;2191933;81;20975;-81
2022/07/03 00:38:34;;;;;;;9.68;8.63;;;;;;;12.99;84.28;99523.57;2192288;81;20944;-81
2022/07/03 00:41:35;;;;;;;8.68;7.72;;;;;;;12.96;84.27;99524.84;2192605;81;20901;-81
2022/07/03 00:44:35;;;;;;;7.55;6.78;;;;;;;12.92;84.25;99525.66;2192304;81;20936;-81
2022/07/03 00:47:36;;;;;;;12.53;7.83;;;;;;;12.89;83.98;99529.55;2192459;81;20955;-82
2022/07/03 00:50:36;;;;;;;10.78;9.08;;;;;;;12.86;84.05;99523.39;2192207;81;20972;-81
2022/07/03 00:53:37;;;;;;;11.75;9.45;;;;;;;12.76;83.69;99521.95;2191940;81;20979;-81
2022/07/03 00:56:37;;;;;;;11.12;10.03;;;;;;;12.68;83.83;99518.34;2191944;81;20975;-81
2022/07/03 00:59:37;;;;;;;11.73;9.90;;;;;;;12.69;84.41;99516.18;2192119;81;20932;-80
2022/07/03 01:02:38;;;;;;;13.30;10.32;;;;;;;12.74;84.54;99509.69;2191797;81;21331;-81
2022/07/03 01:05:40;;;;;;;14.13;10.28;;;;;;;12.70;84.36;99501.34;2191694;81;20952;-81
2022/07/03 01:08:38;;;;;;;12.35;10.38;;;;;;;12.69;84.36;99504.83;2191631;81;20963;-81
2022/07/03 01:11:39;;;;;;;27.65;12.05;;;;;;;12.65;84.44;99499.97;2191910;81;20953;-81
2022/07/03 01:14:40;;;;;;;77.65;12.50;;;;;;;12.65;84.79;99492.11;2191603;81;20949;-81
2022/07/03 01:17:40;;;;;;;52.67;13.15;;;;;;;12.61;84.72;99486.38;2191885;81;21004;-81
2022/07/03 01:20:40;;;;;;;32.70;13.68;;;;;;;12.57;84.90;99497.67;2192233;81;20909;-81
2022/07/03 01:23:40;;;;;;;34.20;12.05;;;;;;;12.57;85.19;99495.48;2191828;81;20971;-81
2022/07/03 01:26:41;;;;;;;60.50;11.93;;;;;;;12.53;85.01;99493.25;2192033;81;20972;-81
2022/07/03 01:29:41;;;;;;;51.40;13.20;;;;;;;12.50;84.95;99494.52;2191848;81;20969;-82
2022/07/03 01:32:42;;;;;;;14.60;12.50;;;;;;;12.49;85.19;99489.26;2191404;81;20964;-81
2022/07/03 01:35:42;;;;;;;16.95;11.60;;;;;;;12.48;85.00;99488.38;2191638;81;21019;-81
2022/07/03 01:38:42;;;;;;;13.50;11.10;;;;;;;12.46;84.83;99486.17;2191829;81;20987;-81
2022/07/03 01:41:43;;;;;;;13.17;10.27;;;;;;;12.48;84.84;99483.57;2191883;81;21301;-82
2022/07/03 01:44:43;;;;;;;12.63;10.65;;;;;;;12.46;84.51;99483.55;2191918;81;20963;-81
2022/07/03 01:47:44;;;;;;;13.60;10.50;;;;;;;12.44;84.51;99490.07;2192052;81;21007;-81
2022/07/03 01:50:44;;;;;;;11.97;10.08;;;;;;;12.41;84.39;99483.48;2191709;81;20980;-82
2022/07/03 01:53:45;;;;;;;13.85;10.35;;;;;;;12.39;84.39;99480.39;2192194;81;21340;-81
2022/07/03 01:56:45;;;;;;;16.70;9.63;;;;;;;12.36;84.48;99475.11;2192134;81;21004;-81
2022/07/03 01:59:45;;;;;;;13.68;9.45;;;;;;;12.35;84.41;99475.54;2192149;81;20960;-81
2022/07/03 02:02:46;;;;;;;18.77;11.45;;;;;;;12.38;84.59;99481.25;2191941;81;20987;-81
2022/07/03 02:05:46;;;;;;;19.97;10.73;;;;;;;12.37;84.71;99482.98;2191905;81;20987;-81
2022/07/03 02:08:47;;;;;;;12.68;10.65;;;;;;;12.37;84.78;99486.03;2191977;81;20984;-82
2022/07/03 02:11:47;;;;;;;13.95;10.15;;;;;;;12.36;84.62;99485.16;2191750;81;21289;-81
2022/07/03 02:14:47;;;;;;;15.23;10.15;;;;;;;12.36;84.62;99481.23;2191762;81;21069;-80
2022/07/03 02:17:48;;;;;;;13.20;10.88;;;;;;;13.83;96.96;99476.03;2175674;81;20973;-81
2022/07/03 02:20:48;;;;;;;22.73;10.68;;;;;;;15.24;91.39;99472.15;2175185;81;20980;-81
2022/07/03 02:23:49;;;;;;;18.95;11.30;;;;;;;16.05;86.33;99471.45;2175073;81;20925;-81
2022/07/03 02:26:49;;;;;;;22.85;11.25;;;;;;;16.14;81.46;99463.54;2175049;81;20977;-81
2022/07/03 02:29:50;;;;;;;56.65;13.75;;;;;;;16.39;82.64;99468.34;2175113;81;20937;-80
2022/07/03 02:32:50;;;;;;;21.23;12.43;;;;;;;16.69;78.82;99461.75;2175003;81;21392;-81
2022/07/03 02:35:50;;;;;;;32.45;13.18;;;;;;;16.62;79.57;99465.69;2174765;81;20956;-82
2022/07/03 02:38:51;;;;;;;61.40;14.40;;;;;;;17.05;79.92;99462.05;2174357;81;20976;-81
2022/07/03 02:41:51;;;;;;;41.90;14.45;;;;;;;17.41;78.51;99462.78;2174379;81;21043;-81
2022/07/03 02:44:51;;;;;;;64.07;14.50;;;;;;;16.91;72.92;99474.41;2174306;81;20989;-82
2022/07/03 02:47:52;;;;;;;22.93;12.60;;;;;;;15.89;72.69;99464.86;2174772;81;21024;-82
2022/07/03 02:50:52;;;;;;;22.75;13.18;;;;;;;15.08;73.19;99456.31;2174508;81;20948;-82
2022/07/03 02:53:53;;;;;;;30.00;13.43;;;;;;;14.49;74.56;99468.70;2174490;81;21024;-83
2022/07/03 02:56:53;;;;;;;42.78;13.68;;;;;;;14.59;83.58;99475.34;2174464;81;21337;-83
2022/07/03 02:59:56;;;;;;;32.70;13.60;;;;;;;15.86;84.45;99471.45;2174545;81;20953;-83
2022/07/03 03:02:57;;;;;;;28.27;13.97;;;;;;;16.65;81.24;99474.91;2174845;81;21412;-83
2022/07/03 03:05:57;;;;;;;31.73;13.00;;;;;;;17.25;79.53;99474.27;2175016;81;20953;-83
2022/07/03 03:08:57;;;;;;;21.60;13.90;;;;;;;17.61;76.90;99475.84;2176110;81;21008;-83
2022/07/03 03:11:59;;;;;;;54.65;15.08;;;;;;;18.01;76.27;99468.55;2175853;81;20964;-82
2022/07/03 03:14:59;;;;;;;84.17;14.03;;;;;;;18.35;74.97;99467.39;2176008;81;20968;-83
2022/07/03 03:17:59;;;;;;;38.05;13.40;;;;;;;18.47;72.76;99462.42;2175579;81;21051;-83
2022/07/03 03:20:59;;;;;;;37.80;13.70;;;;;;;18.43;73.04;99468.19;2175646;81;20932;-83
2022/07/03 03:23:59;;;;;;;44.30;13.60;;;;;;;18.52;72.60;99468.98;2175855;81;20945;-83
2022/07/03 03:27:00;;;;;;;57.43;13.20;;;;;;;18.88;71.95;99467.73;2175428;81;21352;-80
2022/07/03 03:30:00;;;;;;;69.60;12.55;;;;;;;18.79;68.92;99466.07;2174499;81;20980;-81
2022/07/03 03:33:01;;;;;;;40.08;12.37;;;;;;;17.86;68.50;99469.55;2174629;81;20965;-81
2022/07/03 03:36:01;;;;;;;68.85;10.00;;;;;;;17.10;69.82;99480.49;2174939;81;20984;-82
2022/07/03 03:39:02;;;;;;;16.52;10.45;;;;;;;16.59;71.24;99477.56;2174638;81;21028;-81
2022/07/03 03:42:02;;;;;;;11.90;10.78;;;;;;;16.19;72.34;99481.53;2174789;81;20881;-81
2022/07/03 03:45:02;;;;;;;11.18;9.18;;;;;;;15.96;73.74;99476.71;2174602;81;20956;-81
2022/07/03 03:48:03;;;;;;;15.40;10.08;;;;;;;15.79;74.58;99476.27;2174252;81;21368;-81
2022/07/03 03:51:03;;;;;;;27.62;10.28;;;;;;;15.59;75.08;99472.26;2174506;81;20914;-81
2022/07/03 03:54:04;;;;;;;47.35;8.78;;;;;;;15.45;75.73;99463.87;2174402;81;20917;-81
2022/07/03 03:57:04;;;;;;;31.57;7.10;;;;;;;15.37;76.50;99459.03;2174646;81;21012;-81
2022/07/03 04:00:04;;;;;;;15.30;8.43;;;;;;;15.25;76.92;99459.87;2174424;81;21013;-81
2022/07/03 04:03:05;;;;;;;10.45;7.65;;;;;;;15.30;77.42;99457.70;2174477;81;20917;-81
2022/07/03 04:06:05;;;;;;;10.95;6.58;;;;;;;15.35;77.75;99458.14;2174387;81;20984;-82
2022/07/03 04:09:06;;;;;;;8.28;7.47;;;;;;;15.32;78.01;99463.40;2174261;81;20941;-81
2022/07/03 04:12:06;;;;;;;11.93;9.18;;;;;;;15.47;78.26;99455.54;2174173;81;20977;-81
2022/07/03 04:15:06;;;;;;;9.75;8.85;;;;;;;15.65;78.23;99454.76;2173954;81;20988;-81
2022/07/03 04:18:07;;;;;;;8.50;7.70;;;;;;;15.70;78.17;99459.15;2188527;81;21058;-80
2022/07/03 04:21:08;;;;;;;7.67;6.97;;;;;;;15.80;78.72;99464.86;2190595;81;20982;-81
2022/07/03 04:24:08;;;;;;;8.50;7.70;;;;;;;16.02;78.79;99456.52;2190074;81;21027;-82
2022/07/03 04:27:08;;;;;;;8.95;8.15;;;;;;;16.24;78.90;99454.31;2190257;81;20917;-81
2022/07/03 04:30:11;;;;;;;9.20;7.30;;;;;;;16.45;78.89;99453.39;2190239;81;20976;-81
2022/07/03 04:33:12;;;;;;;7.97;7.28;;;;;;;16.65;78.66;99453.82;2190301;81;21308;-80
2022/07/03 04:36:12;;;;;;;7.97;7.33;;;;;;;16.84;78.39;99449.83;2190457;81;20960;-81
2022/07/03 04:39:13;;;;;;;7.55;6.90;;;;;;;17.03;77.94;99439.20;2190469;81;20953;-81
2022/07/03 04:42:13;;;;;;;8.28;7.55;;;;;;;17.22;78.07;99446.14;2190312;81;20920;-81
2022/07/03 04:45:13;;;;;;;9.38;7.85;;;;;;;17.47;77.97;99446.46;2190071;81;20945;-81
2022/07/03 04:48:14;;;;;;;8.75;8.05;;;;;;;17.73;77.74;99443.67;2190095;81;21023;-81
2022/07/03 04:51:14;;;;;;;8.98;8.23;;;;;;;18.00;77.44;99438.61;2189959;81;21020;-81
2022/07/03 04:54:15;;;;;;;8.73;8.00;;;;;;;18.19;77.01;99433.16;2189942;81;20924;-81
2022/07/03 04:57:15;;;;;;;9.33;8.20;;;;;;;18.28;76.83;99437.06;2190192;81;20975;-81
2022/07/03 05:00:16;;;;;;;9.70;8.90;;;;;;;18.48;76.99;99434.22;2190358;81;21379;-81
2022/07/03 05:03:16;;;;;;;9.88;8.88;;;;;;;18.72;76.73;99430.89;2190156;81;20944;-81
2022/07/03 05:06:18;;;;;;;10.10;9.10;;;;;;;18.88;76.37;99432.02;2190032;81;20885;-81
2022/07/03 05:09:19;;;;;;;9.40;8.60;;;;;;;18.89;76.52;99438.63;2190229;81;21004;-81
2022/07/03 05:12:19;;;;;;;9.33;8.40;;;;;;;18.88;76.56;99432.02;2190098;81;20995;-80
2022/07/03 05:15:20;;;;;;;9.20;8.33;;;;;;;18.91;77.01;99430.66;2190054;81;20944;-80
2022/07/03 05:18:20;;;;;;;8.58;7.60;;;;;;;19.19;77.00;99423.27;2174585;81;21044;-80
2022/07/03 05:21:20;;;;;;;9.93;7.17;;;;;;;19.44;75.55;99431.29;2173743;81;20972;-80
2022/07/03 05:24:21;;;;;;;7.00;6.30;;;;;;;19.52;75.62;99421.50;2173745;81;20957;-80
2022/07/03 05:27:21;;;;;;;6.67;6.03;;;;;;;19.65;75.19;99419.08;2173267;81;21025;-80
2022/07/03 05:30:22;;;;;;;9.08;6.85;;;;;;;19.79;74.96;99423.28;2173615;81;20955;-82
2022/07/03 05:33:22;;;;;;;8.65;5.78;;;;;;;19.89;74.23;99422.23;2173459;81;20952;-79
2022/07/03 05:36:22;;;;;;;6.58;4.83;;;;;;;19.94;73.89;99421.70;2173412;81;20941;-79
2022/07/03 05:39:32;;;;;;;5.00;4.58;;;;;;;20.05;72.77;99425.08;2173269;81;20968;-80
2022/07/03 05:42:32;;;;;;;6.10;4.35;;;;;;;20.11;72.52;99425.43;2173480;81;20968;-80
2022/07/03 05:45:33;;;;;;;4.65;4.10;;;;;;;20.23;71.83;99423.44;2173171;81;21361;-80
2022/07/03 05:48:33;;;;;;;4.30;3.90;;;;;;;20.34;71.66;99428.09;2172931;81;21376;-79
2022/07/03 05:51:33;;;;;;;5.22;3.77;;;;;;;20.57;71.61;99426.81;2173234;81;20937;-79
2022/07/03 05:54:34;;;;;;;4.12;3.60;;;;;;;20.91;70.56;99423.94;2173210;81;20948;-80
2022/07/03 05:57:34;;;;;;;5.25;3.40;;;;;;;20.97;70.35;99423.81;2173155;81;21369;-79
2022/07/03 06:00:34;;;;;;;4.17;3.70;;;;;;;21.05;69.36;99426.30;2173060;81;20921;-79
2022/07/03 06:03:35;;;;;;;3.92;3.60;;;;;;;21.06;69.76;99422.73;2173299;81;20965;-80
2022/07/03 06:06:35;;;;;;;4.40;3.47;;;;;;;21.27;68.92;99424.96;2173088;81;21321;-80
2022/07/03 06:09:36;;;;;;;5.70;3.40;;;;;;;21.22;67.80;99429.92;2173350;81;20937;-80
2022/07/03 06:12:36;;;;;;;4.70;3.15;;;;;;;21.08;68.15;99431.55;2173386;81;20980;-80
2022/07/03 06:15:36;;;;;;;3.40;3.10;;;;;;;21.06;67.43;99428.05;2173266;81;20952;-80
2022/07/03 06:18:37;;;;;;;4.05;3.47;;;;;;;21.15;66.92;99427.85;2188371;81;20988;-80
2022/07/03 06:21:37;;;;;;;5.37;3.58;;;;;;;21.30;66.75;99434.64;2189739;81;20976;-80
2022/07/03 06:24:38;;;;;;;5.20;3.45;;;;;;;21.55;66.55;99431.84;2189692;81;20948;-79
2022/07/03 06:27:38;;;;;;;4.15;3.22;;;;;;;21.74;65.14;99430.11;2189806;81;20932;-79
2022/07/03 06:30:39;;;;;;;3.40;3.08;;;;;;;21.83;65.27;99424.58;2189827;81;20965;-79
2022/07/03 06:33:39;;;;;;;5.22;3.52;;;;;;;21.88;64.79;99423.55;2189842;81;20936;-79
2022/07/03 06:36:39;;;;;;;5.62;3.42;;;;;;;21.94;64.90;99418.54;2189778;81;20968;-79
2022/07/03 06:39:40;;;;;;;9.05;7.50;;;;;;;22.21;64.54;99416.99;2189908;81;21004;-80
2022/07/03 06:42:40;;;;;;;3.25;3.00;;;;;;;22.48;63.49;99415.38;2189568;81;21011;-80
2022/07/03 06:45:41;;;;;;;3.10;2.60;;;;;;;22.59;62.28;99416.45;2189791;81;20924;-80
2022/07/03 06:48:41;;;;;;;2.33;2.12;;;;;;;22.49;61.96;99414.00;2189675;81;20999;-80
2022/07/03 06:51:41;;;;;;;3.50;2.30;;;;;;;22.50;61.37;99417.08;2189480;81;20941;-78
2022/07/03 06:54:43;;;;;;;5.50;2.27;;;;;;;22.39;60.48;99412.52;2189690;81;20953;-80
2022/07/03 06:57:42;;;;;;;3.87;2.17;;;;;;;22.31;60.62;99410.52;2189708;81;21013;-80
2022/07/03 07:00:43;;;;;;;3.72;2.22;;;;;;;22.35;60.30;99409.98;2189407;81;20939;-80
2022/07/03 07:03:43;;;;;;;4.12;2.15;;;;;;;22.38;60.55;99409.44;2189625;81;21009;-81
2022/07/03 07:06:43;;;;;;;4.12;2.17;;;;;;;22.48;59.40;99400.75;2190020;81;20936;-81
2022/07/03 07:09:44;;;;;;;2.62;2.40;;;;;;;22.54;60.04;99407.23;2190181;81;21300;-82
2022/07/03 07:12:44;;;;;;;3.70;2.12;;;;;;;22.69;59.64;99404.63;2190256;81;20996;-81
2022/07/03 07:15:45;;;;;;;7.25;2.70;;;;;;;22.82;57.91;99404.72;2189754;81;21006;-81
2022/07/03 07:18:45;;;;;;;4.50;2.50;;;;;;;23.00;59.36;99404.19;2175035;81;21072;-81
2022/07/03 07:21:46;;;;;;;4.45;2.45;;;;;;;23.25;58.89;99395.45;2173763;81;21332;-81
2022/07/03 07:24:46;;;;;;;4.55;2.10;;;;;;;23.48;58.48;99392.98;2173198;81;20921;-81
2022/07/03 07:27:47;;;;;;;5.22;4.72;;;;;;;23.56;58.22;99382.98;2173228;81;20968;-80
2022/07/03 07:30:47;;;;;;;7.12;2.67;;;;;;;23.79;57.84;99380.89;2173391;81;20972;-80
2022/07/03 07:33:47;;;;;;;2.62;2.10;;;;;;;23.98;56.87;99379.34;2173448;81;20933;-79
2022/07/03 07:36:47;;;;;;;2.35;2.15;;;;;;;24.00;56.52;99376.16;2174076;81;20948;-80
2022/07/03 07:39:48;;;;;;;2.83;2.52;;;;;;;24.10;56.15;99373.59;2173719;81;21009;-80
2022/07/03 07:42:48;;;;;;;6.08;3.20;;;;;;;24.11;54.70;99374.00;2173413;81;21294;-80
2022/07/03 07:45:49;;;;;;;3.50;3.20;;;;;;;24.04;54.85;99374.27;2172842;81;21338;-81
2022/07/03 07:48:49;;;;;;;4.08;3.67;;;;;;;24.00;54.29;99372.16;2173433;81;20973;-81
2022/07/03 07:51:50;;;;;;;3.72;3.37;;;;;;;24.01;55.20;99367.24;2173307;82;20989;-81
2022/07/03 07:54:50;;;;;;;4.97;4.50;;;;;;;24.10;55.39;99364.25;2173739;81;20929;-80
2022/07/03 07:57:50;;;;;;;5.72;5.22;;;;;;;24.24;55.05;99364.23;2173318;81;20980;-80
2022/07/03 08:07:28;;;;;;;5.47;4.55;;;;;;;24.08;54.37;99359.90;2173055;82;21408;-80
2022/07/03 08:10:29;;;;;;;6.72;4.90;;;;;;;23.84;55.58;99357.61;2173141;81;20969;-80
2022/07/03 08:13:29;;;;;;;11.85;5.75;;;;;;;24.09;55.73;99368.31;2174029;81;21000;-80
2022/07/03 08:16:29;;;;;;;55.23;9.00;;;;;;;24.36;55.71;99370.06;2173759;81;21004;-80
2022/07/03 08:19:30;;;;;;;7.08;5.85;;;;;;;24.74;55.59;99363.33;2190624;81;21043;-80
2022/07/03 08:22:30;;;;;;;5.85;5.35;;;;;;;25.44;54.01;99357.56;2191161;81;20945;-81
2022/07/03 08:25:31;;;;;;;6.28;5.75;;;;;;;25.77;52.44;99359.34;2189772;81;20960;-80
2022/07/03 08:28:31;;;;;;;5.33;4.83;;;;;;;26.29;52.32;99349.52;2189713;81;20916;-81
2022/07/03 08:31:31;;;;;;;3.70;3.33;;;;;;;26.68;49.75;99346.02;2189653;81;20996;-81
2022/07/03 08:34:32;;;;;;;6.33;3.30;;;;;;;26.31;49.33;99333.39;2189762;81;20953;-81
2022/07/03 08:37:32;;;;;;;3.22;2.95;;;;;;;25.95;49.80;99342.05;2189888;81;20983;-81
2022/07/03 08:40:33;;;;;;;2.83;2.62;;;;;;;25.81;50.13;99344.91;2189718;81;20949;-81
2022/07/03 08:43:33;;;;;;;3.40;2.52;;;;;;;25.67;50.30;99350.38;2189981;81;20960;-80
2022/07/03 08:46:33;;;;;;;3.98;3.67;;;;;;;25.75;50.45;99343.37;2189626;81;21300;-80
2022/07/03 08:49:34;;;;;;;4.60;3.90;;;;;;;25.90;48.33;99353.42;2189765;81;20968;-80
2022/07/03 08:52:35;;;;;;;4.25;3.87;;;;;;;25.76;48.73;99353.13;2189871;81;21024;-80
2022/07/03 08:55:35;;;;;;;3.90;3.60;;;;;;;25.92;48.39;99347.53;2189611;81;21356;-80
2022/07/03 08:58:35;;;;;;;3.98;3.60;;;;;;;25.94;48.03;99348.81;2189715;81;20885;-80
2022/07/03 09:01:41;;;;;;;3.52;3.22;;;;;;;25.84;47.82;99349.66;2189390;81;20940;-80
2022/07/03 09:04:36;;;;;;;3.87;3.27;;;;;;;25.77;48.68;99341.50;2190030;81;20971;-80
2022/07/03 09:07:36;;;;;;;3.02;2.80;;;;;;;25.91;48.32;99339.11;2189681;81;20984;-80
2022/07/03 09:10:37;;;;;;;2.77;2.42;;;;;;;25.82;47.79;99340.84;2189684;81;20987;-81
2022/07/03 09:13:37;;;;;;;5.15;4.60;;;;;;;25.82;48.28;99335.48;2189534;81;21305;-82
2022/07/03 09:16:38;;;;;;;11.97;2.50;;;;;;;25.93;48.21;99332.36;2189522;81;21356;-81
2022/07/03 09:19:38;;;;;;;3.90;2.85;;;;;;;25.91;48.18;99331.09;2189100;81;21028;-81
2022/07/03 09:22:38;;;;;;;3.27;3.05;;;;;;;25.73;48.75;99334.55;2189645;81;20980;-80
2022/07/03 09:25:39;;;;;;;3.50;3.20;;;;;;;25.88;49.34;99329.87;2189498;81;21340;-81
2022/07/03 09:28:39;;;;;;;3.72;3.37;;;;;;;25.97;48.87;99332.63;2189490;81;20941;-82
2022/07/03 09:31:40;;;;;;;4.00;3.70;;;;;;;26.12;48.06;99336.48;2189450;81;20960;-80
2022/07/03 09:34:40;;;;;;;4.42;4.12;;;;;;;26.41;48.06;99338.77;2189674;81;20943;-80
2022/07/03 09:37:40;;;;;;;4.45;4.05;;;;;;;26.67;48.12;99330.89;2189746;81;21396;-80
2022/07/03 09:40:41;;;;;;;4.95;4.45;;;;;;;27.01;46.69;99331.59;2189460;81;20940;-80
2022/07/03 09:43:41;;;;;;;5.60;3.60;;;;;;;26.87;47.04;99325.47;2189434;81;20964;-80
2022/07/03 09:46:42;;;;;;;4.00;3.65;;;;;;;26.92;47.11;99327.97;2189725;81;20984;-81
2022/07/03 09:49:42;;;;;;;4.40;3.60;;;;;;;27.01;46.28;99323.55;2189390;81;21329;-82
2022/07/03 09:52:42;;;;;;;3.70;3.40;;;;;;;26.95;46.55;99320.66;2189034;81;20968;-81
2022/07/03 09:55:43;;;;;;;4.30;4.00;;;;;;;26.94;46.13;99325.62;2189386;81;21015;-80
2022/07/03 09:58:43;;;;;;;3.58;3.27;;;;;;;26.84;46.56;99323.41;2189489;81;21000;-81
2022/07/03 10:01:44;;;;;;;4.10;3.70;;;;;;;26.72;46.62;99320.83;2189482;81;20988;-82
2022/07/03 10:04:44;;;;;;;3.40;3.20;;;;;;;26.83;46.53;99331.05;2189424;81;20956;-81
2022/07/03 10:07:44;;;;;;;4.30;3.92;;;;;;;26.72;46.39;99327.53;2189555;81;20924;-80
2022/07/03 10:10:45;;;;;;;4.10;3.80;;;;;;;26.73;46.45;99328.40;2189604;81;21495;-82
2022/07/03 10:13:46;;;;;;;4.37;4.08;;;;;;;26.76;46.67;99321.56;2189484;81;21320;-79
2022/07/03 10:16:46;;;;;;;4.75;4.35;;;;;;;26.84;46.53;99320.27;2189432;81;20944;-82
2022/07/03 10:19:46;;;;;;;4.55;4.10;;;;;;;26.96;46.85;99316.17;2189005;81;21095;-82
2022/07/03 10:22:46;;;;;;;3.67;3.47;;;;;;;27.03;46.00;99320.33;2189572;81;20905;-80
2022/07/03 10:25:48;;;;;;;4.00;3.70;;;;;;;27.03;45.76;99315.44;2189478;81;21003;-80
2022/07/03 10:28:47;;;;;;;5.12;4.70;;;;;;;27.18;45.52;99314.23;2189661;81;20975;-82
2022/07/03 10:31:48;;;;;;;4.85;4.28;;;;;;;27.54;45.06;99314.70;2189430;81;20972;-82
2022/07/03 10:34:48;;;;;;;4.87;4.47;;;;;;;27.72;44.47;99316.49;2189364;81;21308;-82
2022/07/03 10:37:49;;;;;;;4.45;4.05;;;;;;;27.77;44.50;99301.55;2189333;81;20924;-81
2022/07/03 10:47:27;;;;;;;4.53;4.05;;;;;;;27.95;43.98;99295.70;2189454;81;21015;-83
2022/07/03 10:50:27;;;;;;;7.28;4.42;;;;;;;28.50;43.33;99300.39;2189495;81;20944;-81
2022/07/03 10:53:27;;;;;;;4.30;4.00;;;;;;;28.73;42.74;99286.59;2189331;81;20948;-80
2022/07/03 10:56:28;;;;;;;5.22;4.83;;;;;;;28.84;42.25;99288.72;2189614;81;21004;-81
2022/07/03 10:59:28;;;;;;;5.15;4.75;;;;;;;29.10;42.03;99279.19;2189565;81;20913;-81
2022/07/03 11:02:31;;;;;;;5.20;4.70;;;;;;;29.48;41.31;99267.15;2189753;81;21312;-82
2022/07/03 11:05:32;;;;;;;5.40;5.00;;;;;;;29.82;41.24;99262.93;2189476;81;20931;-81
2022/07/03 11:08:32;;;;;;;5.92;5.42;;;;;;;29.86;40.75;99260.44;2189411;81;20948;-80
2022/07/03 11:14:51;;;;;;;5.30;4.90;;;;;;;30.14;39.23;99255.61;2189237;81;21391;-82
2022/07/03 11:17:52;;;;;;;5.17;4.62;;;;;;;29.77;39.69;99250.62;2189418;81;21359;-80
2022/07/03 11:20:52;;;;;;;3.67;3.40;;;;;;;29.57;40.39;99249.60;2189178;81;21352;-83
2022/07/03 11:23:53;;;;;;;4.47;3.60;;;;;;;29.95;39.71;99246.42;2189325;81;20968;-81
2022/07/03 11:26:53;;;;;;;4.10;3.80;;;;;;;29.94;39.49;99248.73;2189423;81;21004;-81
2022/07/03 11:29:53;;;;;;;5.33;3.92;;;;;;;29.57;39.17;99253.64;2189599;81;20983;-81
2022/07/03 11:32:57;;;;;;;3.85;3.55;;;;;;;28.75;39.66;99251.59;2189612;81;20964;-80
2022/07/03 11:35:54;;;;;;;3.60;3.33;;;;;;;28.61;40.38;99249.67;2189559;81;21376;-82
2022/07/03 11:38:55;;;;;;;3.05;2.85;;;;;;;28.99;39.59;99244.86;2189416;81;20928;-81
2022/07/03 11:41:55;;;;;;;3.37;3.17;;;;;;;28.99;38.99;99249.38;2189559;81;20983;-81
2022/07/03 11:44:55;;;;;;;3.17;2.83;;;;;;;28.62;39.79;99245.17;2189685;81;21129;-82
2022/07/03 11:47:56;;;;;;;2.72;2.52;;;;;;;28.68;39.98;99246.17;2189563;81;21003;-81
2022/07/03 11:50:56;;;;;;;2.90;2.67;;;;;;;28.63;39.33;99243.74;2189666;81;20956;-80
2022/07/03 11:53:57;;;;;;;2.95;2.65;;;;;;;28.63;38.95;99238.84;2189826;81;20913;-81
2022/07/03 11:56:57;;;;;;;5.80;3.08;;;;;;;28.69;39.31;99233.13;2189366;81;21376;-80
2022/07/03 11:59:57;;;;;;;2.90;2.58;;;;;;;28.89;39.13;99220.81;2189411;81;20917;-81
2022/07/03 12:02:58;;;;;;;3.15;2.60;;;;;;;28.88;39.05;99227.14;2189668;81;20924;-80
2022/07/03 12:05:58;;;;;;;2.90;2.65;;;;;;;28.46;39.37;99220.47;2189681;81;20916;-80
2022/07/03 12:08:59;;;;;;;3.33;2.75;;;;;;;28.49;39.65;99224.80;2189347;81;21333;-81
2022/07/03 12:11:59;;;;;;;3.02;2.83;;;;;;;28.83;39.62;99215.31;2189315;81;21399;-79
2022/07/03 12:14:59;;;;;;;3.00;2.80;;;;;;;28.70;38.99;99207.53;2189519;81;20952;-80
2022/07/03 12:18:00;;;;;;;15.08;13.88;;;;;;;28.63;40.04;99207.95;2189492;81;21079;-81
2022/07/03 12:24:23;;;;;;;3.10;2.83;;;;;;;29.08;38.35;99199.98;2238814;79;22575;-81
2022/07/03 12:27:23;;;;;;;4.92;3.60;;;;;;;29.06;38.80;99197.87;2190350;81;20972;-82
2022/07/03 12:30:27;;;;;;;3.72;3.42;;;;;;;29.14;38.88;99197.42;2190140;81;20982;-80
2022/07/03 12:33:28;;;;;;;3.20;2.90;;;;;;;29.06;37.23;99196.52;2190170;81;21374;-81
2022/07/03 12:36:27;;;;;;;5.28;3.15;;;;;;;28.87;38.38;99190.48;2190216;81;21022;-80
2022/07/03 12:39:28;;;;;;;3.62;3.33;;;;;;;28.76;39.04;99194.23;2190504;81;20960;-80
2022/07/03 12:42:28;;;;;;;3.50;3.20;;;;;;;29.13;38.37;99185.80;2190096;81;20916;-81
2022/07/03 12:45:29;;;;;;;3.05;2.85;;;;;;;29.58;37.52;99185.44;2190068;81;20952;-80
2022/07/03 12:48:29;;;;;;;2.90;2.70;;;;;;;30.17;36.32;99193.50;2190246;81;20913;-81
2022/07/03 12:51:29;;;;;;;3.08;2.87;;;;;;;30.17;36.32;99193.50;2189977;81;20948;-80
2022/07/03 12:54:30;;;;;;;3.50;3.17;;;;;;;30.25;36.75;99183.98;2190190;81;21285;-81
2022/07/03 13:00:49;;;;;;;4.30;2.90;;;;;;;29.88;37.68;99189.90;2190363;81;20994;-80
2022/07/03 13:03:49;;;;;;;2.83;2.62;;;;;;;30.32;37.11;99188.02;2190497;81;20975;-80
2022/07/03 13:06:50;;;;;;;3.83;2.70;;;;;;;30.48;36.63;99180.33;2190487;81;20913;-81
2022/07/03 13:09:50;;;;;;;3.17;2.98;;;;;;;30.64;35.36;99184.66;2190386;81;21374;-80
2022/07/03 13:12:51;;;;;;;3.47;2.83;;;;;;;30.34;35.78;99182.05;2190629;81;20944;-81
2022/07/03 13:15:51;;;;;;;2.85;2.65;;;;;;;30.50;35.58;99177.06;2190322;81;20968;-80
2022/07/03 13:18:51;;;;;;;3.80;2.90;;;;;;;30.74;35.48;99176.84;2190459;81;20976;-80
2022/07/03 13:21:52;;;;;;;2.85;2.65;;;;;;;30.81;35.28;99173.27;2190648;81;21000;-80
2022/07/03 13:24:52;;;;;;;2.95;2.60;;;;;;;30.94;34.78;99172.84;2190665;81;20949;-80
2022/07/03 13:27:53;;;;;;;2.95;2.72;;;;;;;31.01;34.53;99168.28;2190975;81;20958;-80
2022/07/03 13:30:53;;;;;;;3.00;2.80;;;;;;;31.28;34.16;99164.28;2190579;81;21348;-81
2022/07/03 13:33:53;;;;;;;3.00;2.67;;;;;;;31.64;33.75;99159.53;2190056;81;21324;-79
2022/07/03 13:36:54;;;;;;;3.05;2.75;;;;;;;31.56;33.55;99161.90;2190003;81;20995;-80
2022/07/03 13:39:54;;;;;;;4.05;2.87;;;;;;;31.27;33.64;99154.45;2189967;81;20927;-79
2022/07/03 13:42:55;;;;;;;4.42;3.10;;;;;;;30.98;34.06;99155.01;2189754;81;21375;-80
2022/07/03 13:45:55;;;;;;;3.17;2.95;;;;;;;30.52;34.35;99154.45;2189465;81;20960;-79
2022/07/03 13:48:56;;;;;;;3.75;3.35;;;;;;;29.97;34.95;99154.34;2189274;81;21036;-80
2022/07/03 13:51:56;;;;;;;3.33;3.02;;;;;;;29.65;34.95;99153.65;2189520;81;21432;-80
2022/07/03 13:54:56;;;;;;;3.17;2.92;;;;;;;29.60;35.67;99141.83;2189928;81;20959;-78
2022/07/03 13:57:57;;;;;;;3.25;3.02;;;;;;;29.91;35.74;99143.96;2189509;81;20999;-80
2022/07/03 14:00:58;;;;;;;3.25;2.95;;;;;;;29.97;35.93;99140.89;2189715;81;20980;-80
2022/07/03 14:03:57;;;;;;;3.50;3.20;;;;;;;30.00;36.85;99138.00;2189622;81;21340;-81
2022/07/03 14:06:58;;;;;;;3.15;2.87;;;;;;;30.05;35.36;99138.61;2190038;81;20983;-80
2022/07/03 14:09:58;;;;;;;3.30;2.98;;;;;;;29.65;36.13;99138.38;2189847;81;21005;-80
2022/07/03 14:12:59;;;;;;;4.47;3.30;;;;;;;29.63;36.03;99142.98;2189939;81;20960;-81
2022/07/03 14:15:59;;;;;;;6.90;3.02;;;;;;;29.48;36.61;99132.68;2190045;81;20952;-79
2022/07/03 14:19:02;;;;;;;3.12;2.83;;;;;;;29.33;37.16;99132.20;2189700;81;20952;-81
2022/07/03 14:22:00;;;;;;;3.83;3.52;;;;;;;29.55;36.93;99134.52;2189564;81;21375;-81
2022/07/03 14:25:00;;;;;;;3.55;3.25;;;;;;;29.73;35.53;99125.31;2189790;81;20925;-80
2022/07/03 14:34:20;;;;;;;3.70;3.40;;;;;;;29.32;36.64;99117.03;2190140;81;20979;-82
2022/07/03 14:37:21;;;;;;;4.12;3.05;;;;;;;29.26;37.31;99113.36;2189876;81;21320;-80